Time;durP1;ratioP1;P1;durP2;ratioP2;P2;SDS_P1;SDS_P2;PMS_P1;PMS_P2;Temp;Humidity;BMP_temperature;BMP_pressure;BME280_temperature;BME280_humidity;BME280_pressure;Samples;Min_cycle;Max_cycle;Signal;HPM_P1;HPM_P2
2022/09/30 00:01:25;;;;;;;10.80;9.60;;;9.50;99.90;;;;;;5081491;28;20219;-69
2022/09/30 00:03:54;;;;;;;11.23;8.57;;;9.50;99.90;;;;;;5077208;28;20193;-68
2022/09/30 00:06:20;;;;;;;12.50;9.10;;;9.50;99.90;;;;;;5074914;28;20188;-67
2022/09/30 00:08:46;;;;;;;11.20;7.30;;;9.50;99.90;;;;;;5102465;27;20680;-69
2022/09/30 00:11:18;;;;;;;12.10;8.33;;;9.50;99.90;;;;;;5095020;27;20204;-68
2022/09/30 00:13:46;;;;;;;9.73;7.50;;;9.40;99.90;;;;;;5078998;28;20168;-68
2022/09/30 00:16:13;;;;;;;16.90;9.40;;;9.50;99.90;;;;;;5109946;27;20180;-68
2022/09/30 00:18:40;;;;;;;11.93;8.40;;;9.40;99.90;;;;;;5079700;28;20203;-67
2022/09/30 00:21:07;;;;;;;9.40;7.50;;;9.40;99.90;;;;;;5079612;28;20221;-68
2022/09/30 00:23:33;;;;;;;17.77;8.87;;;9.40;99.90;;;;;;5072556;28;20241;-68
2022/09/30 00:26:05;;;;;;;9.80;7.23;;;9.40;99.90;;;;;;5057137;28;20196;-67
2022/09/30 00:28:31;;;;;;;12.80;8.77;;;9.40;99.90;;;;;;5110863;27;20292;-67
2022/09/30 00:30:59;;;;;;;9.97;7.97;;;9.40;99.90;;;;;;5109010;27;20521;-68
2022/09/30 00:33:25;;;;;;;10.10;8.00;;;9.40;99.90;;;;;;5090405;28;20201;-67
2022/09/30 00:35:50;;;;;;;12.93;9.10;;;9.30;99.90;;;;;;5107785;27;20295;-67
2022/09/30 00:38:16;;;;;;;11.47;8.23;;;9.30;99.90;;;;;;5107279;27;20175;-68
2022/09/30 00:40:42;;;;;;;9.40;8.00;;;9.30;99.90;;;;;;5084555;28;20191;-68
2022/09/30 00:43:20;;;;;;;12.17;9.57;;;9.20;99.90;;;;;;5101422;27;20197;-70
2022/09/30 00:46:05;;;;;;;12.40;9.07;;;9.20;99.90;;;;;;5106627;27;20266;-69
2022/09/30 00:48:34;;;;;;;10.93;8.30;;;9.30;99.90;;;;;;5094504;28;20184;-69
2022/09/30 00:51:02;;;;;;;12.67;8.97;;;9.20;99.90;;;;;;5101150;27;20179;-67
2022/09/30 00:53:43;;;;;;;15.80;10.80;;;9.20;99.90;;;;;;5090022;28;20652;-69
2022/09/30 00:56:10;;;;;;;12.37;8.37;;;9.20;99.90;;;;;;5086230;28;20187;-68
2022/09/30 00:58:38;;;;;;;13.80;8.90;;;9.20;99.90;;;;;;5107832;28;20180;-67
2022/09/30 01:01:04;;;;;;;14.67;9.90;;;9.20;99.90;;;;;;5110330;27;20653;-70
2022/09/30 01:03:34;;;;;;;14.63;10.00;;;9.20;99.90;;;;;;5092942;28;20685;-70
2022/09/30 01:06:00;;;;;;;14.23;10.30;;;9.20;99.90;;;;;;5087534;28;20172;-70
2022/09/30 01:08:27;;;;;;;13.93;8.73;;;9.20;99.90;;;;;;5079641;28;20225;-70
2022/09/30 01:10:53;;;;;;;13.47;9.37;;;9.10;99.90;;;;;;5110118;28;20210;-70
2022/09/30 01:13:22;;;;;;;12.23;9.37;;;9.20;99.90;;;;;;5102723;27;20180;-70
2022/09/30 01:15:56;;;;;;;18.63;10.77;;;9.10;99.90;;;;;;5096301;28;20281;-70
2022/09/30 01:18:50;;;;;;;12.67;9.03;;;9.10;99.90;;;;;;5076984;28;20604;-70
2022/09/30 01:21:35;;;;;;;14.37;10.30;;;9.10;99.90;;;;;;5110268;27;20316;-69
2022/09/30 01:24:20;;;;;;;9.80;8.77;;;9.10;99.90;;;;;;5084629;28;20225;-70
2022/09/30 01:27:29;;;;;;;10.53;9.10;;;9.10;99.90;;;;;;5093963;28;20176;-70
2022/09/30 01:30:41;;;;;;;12.67;8.80;;;9.00;99.90;;;;;;5089779;28;20173;-70
2022/09/30 01:33:27;;;;;;;14.07;9.47;;;9.00;99.90;;;;;;5080248;28;20187;-69
2022/09/30 01:36:05;;;;;;;14.27;9.80;;;9.00;99.90;;;;;;5094963;28;20415;-70
2022/09/30 01:38:50;;;;;;;17.03;11.53;;;8.90;99.90;;;;;;5096027;28;20185;-70
2022/09/30 01:41:31;;;;;;;11.83;8.90;;;8.90;99.90;;;;;;5083905;27;20212;-70
2022/09/30 01:44:06;;;;;;;16.47;10.03;;;8.90;99.90;;;;;;5110242;27;20231;-70
2022/09/30 01:47:00;;;;;;;13.60;9.13;;;8.90;99.90;;;;;;5098822;28;20172;-69
2022/09/30 01:49:31;;;;;;;11.20;8.97;;;8.80;99.90;;;;;;5106512;28;20226;-70
2022/09/30 01:52:05;;;;;;;13.23;9.17;;;8.80;99.90;;;;;;5100966;27;20176;-70
2022/09/30 01:54:51;;;;;;;13.87;9.30;;;8.70;99.90;;;;;;5081441;28;20172;-70
2022/09/30 01:57:31;;;;;;;15.83;9.80;;;8.80;99.90;;;;;;5113729;27;20636;-70
2022/09/30 02:00:07;;;;;;;15.97;8.57;;;8.80;99.90;;;;;;5106388;28;20185;-70
2022/09/30 02:02:41;;;;;;;12.73;9.60;;;8.70;99.90;;;;;;5104905;28;20204;-70
2022/09/30 02:05:24;;;;;;;11.50;9.20;;;8.70;99.90;;;;;;5105938;28;20176;-70
2022/09/30 02:08:13;;;;;;;14.67;9.47;;;8.70;99.90;;;;;;5095311;28;20229;-70
2022/09/30 02:10:51;;;;;;;13.00;9.57;;;8.70;99.90;;;;;;5107416;28;20222;-69
2022/09/30 02:13:24;;;;;;;12.30;9.43;;;8.80;99.90;;;;;;5113257;28;20263;-70
2022/09/30 02:15:58;;;;;;;13.80;9.73;;;8.70;99.90;;;;;;5113763;28;20176;-70
2022/09/30 02:18:46;;;;;;;13.07;9.90;;;8.70;99.90;;;;;;5112790;27;20191;-70
2022/09/30 02:21:19;;;;;;;15.60;9.97;;;8.70;99.90;;;;;;5105082;28;20218;-70
2022/09/30 02:23:48;;;;;;;15.13;9.30;;;8.70;99.90;;;;;;5111039;28;20194;-70
2022/09/30 02:26:26;;;;;;;14.73;9.80;;;8.70;99.90;;;;;;5104114;28;20237;-70
2022/09/30 02:29:04;;;;;;;12.70;9.20;;;8.60;99.90;;;;;;5080013;28;20535;-70
2022/09/30 02:31:37;;;;;;;15.63;10.03;;;8.60;99.90;;;;;;5104374;28;20198;-70
2022/09/30 02:34:24;;;;;;;13.50;9.33;;;8.60;99.90;;;;;;5093255;28;20176;-70
2022/09/30 02:37:09;;;;;;;16.93;10.83;;;8.60;99.90;;;;;;5106932;28;20309;-70
2022/09/30 02:40:10;;;;;;;13.47;9.90;;;8.50;99.90;;;;;;5110942;28;20176;-70
2022/09/30 02:42:38;;;;;;;13.53;9.10;;;8.60;99.90;;;;;;5058176;28;20597;-70
2022/09/30 02:45:09;;;;;;;11.70;9.47;;;8.50;99.90;;;;;;5107920;28;20189;-70
2022/09/30 02:48:04;;;;;;;14.90;10.07;;;8.50;99.90;;;;;;5097491;28;20195;-70
2022/09/30 02:50:50;;;;;;;16.63;8.93;;;8.50;99.90;;;;;;5106783;28;20196;-70
2022/09/30 02:53:21;;;;;;;16.20;10.83;;;8.40;99.90;;;;;;5100182;28;20176;-70
2022/09/30 02:56:05;;;;;;;14.57;9.60;;;8.40;99.90;;;;;;5100932;28;20211;-70
2022/09/30 02:58:35;;;;;;;14.20;9.93;;;8.40;99.90;;;;;;5097177;28;20168;-70
2022/09/30 03:01:01;;;;;;;14.83;8.93;;;8.50;99.90;;;;;;5112422;28;20200;-70
2022/09/30 03:03:49;;;;;;;16.73;10.23;;;8.40;99.90;;;;;;5097275;28;20636;-70
2022/09/30 03:06:16;;;;;;;17.73;10.20;;;8.50;99.90;;;;;;5094598;28;20197;-69
2022/09/30 03:08:42;;;;;;;13.30;9.70;;;8.60;99.90;;;;;;5094845;28;20176;-70
2022/09/30 03:11:16;;;;;;;14.77;10.10;;;8.60;99.90;;;;;;5085240;28;20287;-70
2022/09/30 03:14:07;;;;;;;15.17;10.20;;;8.60;99.90;;;;;;5110717;27;20211;-70
2022/09/30 03:16:48;;;;;;;15.23;11.90;;;8.60;99.90;;;;;;5096564;28;20191;-70
2022/09/30 03:19:23;;;;;;;15.70;10.00;;;8.60;99.90;;;;;;5083178;28;20180;-70
2022/09/30 03:22:23;;;;;;;16.37;10.50;;;8.60;99.90;;;;;;5091989;28;20207;-70
2022/09/30 03:24:58;;;;;;;15.00;10.40;;;8.60;99.90;;;;;;5108601;27;20629;-70
2022/09/30 03:27:48;;;;;;;16.90;11.73;;;8.50;99.90;;;;;;5111546;28;20190;-70
2022/09/30 03:30:27;;;;;;;16.10;9.33;;;8.50;99.90;;;;;;5110660;27;20176;-70
2022/09/30 03:33:18;;;;;;;13.20;9.43;;;8.40;99.90;;;;;;5097470;27;20179;-70
2022/09/30 03:35:56;;;;;;;14.43;9.73;;;8.40;99.90;;;;;;5097941;28;20187;-70
2022/09/30 03:38:43;;;;;;;13.97;10.40;;;8.40;99.90;;;;;;5111976;28;20204;-70
2022/09/30 03:41:39;;;;;;;14.07;9.00;;;8.40;99.90;;;;;;5116077;27;20215;-70
2022/09/30 03:44:34;;;;;;;14.67;10.30;;;8.40;99.90;;;;;;5115093;27;20205;-70
2022/09/30 03:47:08;;;;;;;14.07;10.33;;;8.40;99.90;;;;;;5078501;28;20204;-70
2022/09/30 03:49:39;;;;;;;19.20;13.17;;;8.30;99.90;;;;;;5105622;28;20232;-70
2022/09/30 03:52:08;;;;;;;15.00;10.80;;;8.40;99.90;;;;;;5097195;28;20180;-70
2022/09/30 03:54:37;;;;;;;14.17;10.30;;;8.30;99.90;;;;;;5086561;28;20199;-70
2022/09/30 03:57:04;;;;;;;18.23;10.47;;;8.30;99.90;;;;;;5110449;27;20172;-70
2022/09/30 03:59:29;;;;;;;11.10;8.70;;;8.30;99.90;;;;;;5096081;28;20263;-70
2022/09/30 04:01:56;;;;;;;16.70;10.63;;;8.30;99.90;;;;;;5069684;28;20295;-70
2022/09/30 04:04:22;;;;;;;14.83;10.53;;;8.30;99.90;;;;;;5090899;28;20214;-71
2022/09/30 04:06:48;;;;;;;17.47;10.70;;;8.20;99.90;;;;;;5095511;28;20184;-70
2022/09/30 04:09:14;;;;;;;15.17;9.33;;;8.30;99.90;;;;;;5097572;28;20270;-69
2022/09/30 04:11:39;;;;;;;15.53;11.10;;;8.20;99.90;;;;;;5092980;28;20280;-71
2022/09/30 04:14:06;;;;;;;19.20;11.13;;;8.20;99.90;;;;;;5083127;28;20254;-70
2022/09/30 04:16:33;;;;;;;17.33;10.90;;;8.30;99.90;;;;;;5068668;28;20193;-70
2022/09/30 04:18:59;;;;;;;19.10;11.30;;;8.30;99.90;;;;;;5115645;27;20179;-70
2022/09/30 04:21:27;;;;;;;29.80;11.73;;;8.30;99.90;;;;;;5109080;27;20270;-70
2022/09/30 04:23:54;;;;;;;18.80;11.17;;;8.30;99.90;;;;;;5101908;28;20176;-70
2022/09/30 04:26:20;;;;;;;15.67;12.13;;;8.30;99.90;;;;;;5092842;28;20199;-70
2022/09/30 04:28:46;;;;;;;17.27;12.20;;;8.30;99.90;;;;;;5067331;28;20652;-70
2022/09/30 04:31:14;;;;;;;17.63;12.10;;;8.30;99.90;;;;;;5091923;28;20194;-70
2022/09/30 04:33:39;;;;;;;22.70;12.53;;;8.30;99.90;;;;;;5082533;28;20547;-70
2022/09/30 04:36:06;;;;;;;20.23;12.20;;;8.40;99.90;;;;;;5079892;27;20192;-70
2022/09/30 04:38:33;;;;;;;20.60;12.83;;;8.30;99.90;;;;;;5110280;27;20545;-70
2022/09/30 04:41:02;;;;;;;21.43;12.63;;;8.30;99.90;;;;;;5079053;28;20211;-70
2022/09/30 04:43:28;;;;;;;18.67;12.90;;;8.30;99.90;;;;;;5096811;28;20191;-70
2022/09/30 04:45:54;;;;;;;20.43;13.57;;;8.40;99.90;;;;;;5079088;28;20385;-70
2022/09/30 04:48:23;;;;;;;18.03;12.73;;;8.30;99.90;;;;;;5079870;28;20644;-70
2022/09/30 04:50:50;;;;;;;19.37;12.90;;;8.30;99.90;;;;;;5092767;28;20599;-70
2022/09/30 04:53:17;;;;;;;24.87;14.67;;;8.40;99.90;;;;;;5076756;28;20190;-70
2022/09/30 04:55:44;;;;;;;21.37;12.10;;;8.60;99.90;;;;;;5105547;28;20223;-68
2022/09/30 04:58:10;;;;;;;19.83;13.70;;;8.60;99.90;;;;;;5113236;28;20184;-68
2022/09/30 05:00:36;;;;;;;22.70;14.57;;;8.60;99.90;;;;;;5115198;27;20219;-68
2022/09/30 05:03:02;;;;;;;24.23;13.67;;;8.70;99.90;;;;;;5089699;28;20187;-72
2022/09/30 05:05:28;;;;;;;23.07;13.83;;;8.60;99.90;;;;;;5096119;28;20195;-69
2022/09/30 05:08:02;;;;;;;25.37;14.53;;;8.50;99.90;;;;;;5113430;28;20187;-68
2022/09/30 05:10:28;;;;;;;22.33;14.53;;;8.40;99.90;;;;;;5092810;28;20649;-69
2022/09/30 05:12:55;;;;;;;22.57;14.37;;;8.50;99.90;;;;;;5078051;27;20188;-69
2022/09/30 05:15:20;;;;;;;21.57;13.97;;;8.50;99.90;;;;;;5095526;28;20245;-71
2022/09/30 05:17:48;;;;;;;19.77;13.73;;;8.50;99.90;;;;;;5095164;27;20204;-69
2022/09/30 05:20:14;;;;;;;20.83;13.57;;;8.40;99.90;;;;;;5079702;28;20205;-69
2022/09/30 05:22:39;;;;;;;25.83;14.23;;;8.50;99.90;;;;;;5103194;27;20691;-71
2022/09/30 05:25:06;;;;;;;26.63;16.03;;;8.40;99.90;;;;;;5077140;28;20189;-69
2022/09/30 05:27:31;;;;;;;24.53;15.40;;;8.30;99.90;;;;;;5081628;28;20195;-71
2022/09/30 05:29:57;;;;;;;25.63;15.67;;;8.30;99.90;;;;;;5072578;28;20184;-70
2022/09/30 05:32:23;;;;;;;26.27;16.03;;;8.30;99.90;;;;;;5076663;28;20192;-69
2022/09/30 05:34:49;;;;;;;24.73;14.40;;;8.30;99.90;;;;;;5079165;28;20184;-72
2022/09/30 05:37:15;;;;;;;24.67;15.43;;;8.30;99.90;;;;;;5061117;28;20172;-70
2022/09/30 05:39:41;;;;;;;27.17;16.57;;;8.30;99.90;;;;;;5092016;28;20637;-71
2022/09/30 05:42:07;;;;;;;28.83;18.83;;;8.30;99.90;;;;;;5050091;28;20572;-71
2022/09/30 05:44:33;;;;;;;51.53;16.37;;;8.30;99.90;;;;;;5073295;28;20257;-69
2022/09/30 05:46:58;;;;;;;21.67;15.30;;;8.30;99.90;;;;;;5089411;28;20230;-69
2022/09/30 05:49:25;;;;;;;26.53;15.63;;;8.30;99.90;;;;;;5094182;28;20192;-69
2022/09/30 05:51:51;;;;;;;28.50;17.07;;;8.30;99.90;;;;;;5105885;27;20243;-68
2022/09/30 05:54:17;;;;;;;26.03;15.90;;;8.30;99.90;;;;;;5063974;28;20679;-69
2022/09/30 05:56:43;;;;;;;27.17;15.83;;;8.20;99.90;;;;;;5091648;28;20184;-69
2022/09/30 05:59:09;;;;;;;24.90;15.00;;;8.30;99.90;;;;;;5083373;28;20219;-68
2022/09/30 06:01:35;;;;;;;28.00;16.43;;;8.30;99.90;;;;;;5101172;28;20684;-69
2022/09/30 06:04:01;;;;;;;27.33;15.87;;;8.30;99.90;;;;;;5094135;27;20663;-70
2022/09/30 06:06:27;;;;;;;23.63;14.40;;;8.30;99.90;;;;;;5110254;28;20192;-69
2022/09/30 06:08:53;;;;;;;32.43;18.40;;;8.30;99.90;;;;;;5101599;27;20267;-69
2022/09/30 06:11:23;;;;;;;23.43;13.97;;;8.30;99.90;;;;;;5107971;27;20233;-69
2022/09/30 06:13:50;;;;;;;25.57;14.80;;;8.30;99.90;;;;;;5084376;28;20661;-69
2022/09/30 06:16:17;;;;;;;22.83;15.63;;;8.30;99.90;;;;;;5116421;27;20191;-69
2022/09/30 06:18:43;;;;;;;22.93;15.33;;;8.40;99.90;;;;;;5094460;28;20178;-69
2022/09/30 06:21:12;;;;;;;30.03;17.03;;;8.40;99.90;;;;;;5101678;28;20216;-69
2022/09/30 06:23:38;;;;;;;26.07;15.80;;;8.50;99.90;;;;;;5093681;28;20204;-69
2022/09/30 06:26:05;;;;;;;29.93;16.77;;;8.70;99.90;;;;;;5076141;28;20238;-69
2022/09/30 06:28:34;;;;;;;36.07;18.53;;;8.70;99.90;;;;;;5078383;28;20667;-69
2022/09/30 06:31:04;;;;;;;29.10;17.83;;;8.70;99.90;;;;;;5102843;28;20193;-70
2022/09/30 06:33:30;;;;;;;25.10;16.33;;;8.60;99.90;;;;;;5086706;28;20252;-69
2022/09/30 06:35:56;;;;;;;24.80;15.53;;;8.70;99.90;;;;;;5104661;28;20192;-69
2022/09/30 06:38:22;;;;;;;24.87;16.13;;;8.70;99.90;;;;;;5099799;28;20188;-70
2022/09/30 06:40:49;;;;;;;29.20;16.70;;;8.70;99.90;;;;;;5088228;28;20542;-69
2022/09/30 06:43:16;;;;;;;33.30;17.70;;;8.70;99.90;;;;;;5083697;28;20696;-69
2022/09/30 06:45:43;;;;;;;23.37;15.17;;;8.80;99.90;;;;;;5099485;28;20195;-69
2022/09/30 06:48:09;;;;;;;27.07;16.80;;;9.00;99.90;;;;;;5098891;27;20207;-69
2022/09/30 06:50:35;;;;;;;29.27;17.53;;;9.10;99.90;;;;;;5079269;28;20188;-70
2022/09/30 06:53:05;;;;;;;26.57;16.07;;;9.10;99.90;;;;;;5080393;27;20268;-70
2022/09/30 06:55:31;;;;;;;23.30;16.27;;;9.50;99.90;;;;;;5107426;28;20188;-69
2022/09/30 06:57:57;;;;;;;29.07;16.93;;;9.50;99.90;;;;;;5083234;27;20214;-70
2022/09/30 07:00:25;;;;;;;28.27;17.47;;;10.00;99.90;;;;;;5088103;27;20318;-69
2022/09/30 07:02:54;;;;;;;30.60;17.67;;;11.30;99.90;;;;;;5079159;28;20216;-69
2022/09/30 07:05:19;;;;;;;30.35;16.35;;;12.60;99.90;;;;;;5102483;28;20233;-69
2022/09/30 07:07:45;;;;;;;24.05;14.80;;;13.80;99.90;;;;;;5097635;28;20187;-69
2022/09/30 07:10:11;;;;;;;23.35;14.48;;;15.10;99.90;;;;;;5106098;27;20235;-69
2022/09/30 07:12:37;;;;;;;23.10;14.00;;;16.30;99.90;;;;;;5071479;28;20275;-69
2022/09/30 07:15:03;;;;;;;18.30;13.38;;;17.00;99.90;;;;;;5096430;28;20172;-69
2022/09/30 07:17:28;;;;;;;25.08;13.85;;;17.70;99.90;;;;;;5101400;28;20181;-69
2022/09/30 07:19:54;;;;;;;16.27;12.73;;;18.30;99.90;;;;;;5101421;27;20184;-70
2022/09/30 07:22:28;;;;;;;19.55;13.35;;;18.70;99.90;;;;;;5107316;27;20596;-69
2022/09/30 07:24:58;;;;;;;18.83;13.55;;;19.20;99.90;;;;;;5098915;28;20208;-69
2022/09/30 07:27:28;;;;;;;15.27;12.40;;;19.50;99.90;;;;;;5114357;27;20209;-69
2022/09/30 07:29:54;;;;;;;22.48;12.90;;;19.40;99.90;;;;;;5084390;28;20192;-70
2022/09/30 07:32:21;;;;;;;18.40;11.68;;;19.50;99.90;;;;;;5092010;28;20189;-70
2022/09/30 07:34:47;;;;;;;17.45;11.50;;;19.60;99.90;;;;;;5094781;28;20267;-70
2022/09/30 07:37:15;;;;;;;20.40;12.90;;;19.90;99.90;;;;;;5062969;28;20187;-70
2022/09/30 07:39:43;;;;;;;20.90;12.32;;;19.80;99.90;;;;;;5092519;28;20541;-70
2022/09/30 07:42:09;;;;;;;20.67;11.73;;;19.80;99.90;;;;;;5061607;28;20711;-70
2022/09/30 07:44:40;;;;;;;24.13;10.85;;;19.50;99.90;;;;;;5093958;28;20236;-70
2022/09/30 07:47:06;;;;;;;21.83;12.45;;;19.60;99.90;;;;;;5106377;27;20632;-69
2022/09/30 07:49:33;;;;;;;19.83;12.50;;;19.40;99.90;;;;;;5091649;27;20226;-70
2022/09/30 07:51:59;;;;;;;17.17;11.93;;;19.20;99.90;;;;;;5068037;28;20215;-70
2022/09/30 07:54:28;;;;;;;15.65;10.38;;;19.10;99.90;;;;;;5109542;27;20328;-69
2022/09/30 07:56:54;;;;;;;15.13;10.45;;;19.30;99.90;;;;;;5115246;27;20194;-69
2022/09/30 07:59:20;;;;;;;15.35;10.23;;;20.00;99.90;;;;;;5091886;28;20184;-70
2022/09/30 08:01:47;;;;;;;16.40;11.13;;;20.40;99.90;;;;;;5120132;27;20700;-69
2022/09/30 08:04:15;;;;;;;14.05;9.48;;;20.20;99.90;;;;;;5115760;27;20229;-70
2022/09/30 08:06:50;;;;;;;13.57;9.13;;;20.50;99.90;;;;;;5111484;28;20542;-70
2022/09/30 08:09:18;;;;;;;15.52;10.63;;;20.70;99.90;;;;;;5102639;27;20549;-69
2022/09/30 08:11:44;;;;;;;19.60;11.15;;;20.70;99.90;;;;;;5105416;28;20836;-70
2022/09/30 08:14:20;;;;;;;16.20;9.82;;;20.60;99.90;;;;;;5105884;27;20592;-70
2022/09/30 08:16:47;;;;;;;14.90;9.45;;;20.90;99.90;;;;;;5103288;28;20175;-69
2022/09/30 08:19:15;;;;;;;17.38;11.80;;;20.90;99.90;;;;;;5107364;27;20267;-68
2022/09/30 08:21:42;;;;;;;15.70;10.40;;;20.20;99.90;;;;;;5110889;28;20236;-69
2022/09/30 08:24:08;;;;;;;15.73;11.02;;;19.20;99.90;;;;;;5115599;27;20188;-69
2022/09/30 08:26:34;;;;;;;16.50;9.65;;;18.60;99.90;;;;;;5085273;28;20582;-69
2022/09/30 08:29:00;;;;;;;11.15;9.15;;;18.40;99.90;;;;;;5079270;28;20197;-68
2022/09/30 08:31:26;;;;;;;14.77;8.73;;;17.90;99.90;;;;;;5090113;28;20692;-67
2022/09/30 08:33:53;;;;;;;16.52;9.43;;;17.40;99.90;;;;;;5067852;27;20173;-68
2022/09/30 08:36:26;;;;;;;11.80;9.15;;;16.60;99.90;;;;;;5106199;27;20175;-69
2022/09/30 08:38:53;;;;;;;16.85;10.25;;;16.00;99.90;;;;;;5109833;28;20199;-69
2022/09/30 08:41:37;;;;;;;9.82;8.25;;;15.70;99.90;;;;;;5059334;28;20213;-68
2022/09/30 08:44:06;;;;;;;12.35;9.30;;;15.50;99.90;;;;;;5079853;28;20188;-69
2022/09/30 08:46:48;;;;;;;12.63;9.45;;;15.60;99.90;;;;;;5107601;27;20185;-69
2022/09/30 08:49:36;;;;;;;10.70;9.10;;;15.60;99.90;;;;;;5094326;28;20208;-68
2022/09/30 08:52:06;;;;;;;12.82;9.60;;;15.60;99.90;;;;;;5085544;28;20185;-69
2022/09/30 08:54:34;;;;;;;14.95;10.60;;;15.40;99.90;;;;;;5098432;27;20556;-68
2022/09/30 08:57:02;;;;;;;16.10;10.30;;;15.30;99.90;;;;;;5089711;27;20660;-68
2022/09/30 08:59:36;;;;;;;14.98;9.25;;;15.20;99.90;;;;;;5099328;28;20272;-69
2022/09/30 09:02:31;;;;;;;11.25;9.60;;;15.00;99.90;;;;;;5086041;27;20455;-69
2022/09/30 09:05:00;;;;;;;13.68;8.10;;;15.00;99.90;;;;;;5095034;28;20596;-69
2022/09/30 09:07:49;;;;;;;13.20;8.13;;;15.10;99.90;;;;;;5096264;28;20209;-68
2022/09/30 09:10:35;;;;;;;13.07;8.27;;;15.10;99.90;;;;;;5103275;28;20200;-68
2022/09/30 09:13:37;;;;;;;12.25;7.85;;;15.20;99.90;;;;;;5109895;27;20195;-68
2022/09/30 09:16:21;;;;;;;18.95;8.15;;;15.40;99.90;;;;;;5113611;28;20175;-67
2022/09/30 09:19:06;;;;;;;11.23;7.72;;;15.40;99.90;;;;;;5119043;27;20262;-67
2022/09/30 09:21:48;;;;;;;9.07;5.75;;;15.30;99.90;;;;;;5102771;28;20207;-68
2022/09/30 09:24:22;;;;;;;6.85;6.15;;;15.10;99.90;;;;;;5099930;28;20175;-68
2022/09/30 09:26:52;;;;;;;11.43;6.75;;;15.10;99.90;;;;;;5102554;27;20536;-68
2022/09/30 09:29:45;;;;;;;6.93;6.22;;;15.20;99.90;;;;;;5098968;28;20255;-68
2022/09/30 09:32:16;;;;;;;13.18;5.65;;;15.40;99.90;;;;;;5104004;28;20194;-66
2022/09/30 09:34:43;;;;;;;8.60;6.57;;;15.40;99.90;;;;;;5089677;28;20645;-66
2022/09/30 09:37:18;;;;;;;5.53;4.75;;;15.60;99.90;;;;;;5096423;27;20271;-67
2022/09/30 09:40:42;;;;;;;6.45;4.93;;;15.60;99.90;;;;;;5094349;28;20183;-66
2022/09/30 09:43:44;;;;;;;6.82;5.13;;;15.50;99.90;;;;;;5024033;28;20818;-67
2022/09/30 09:46:18;;;;;;;5.43;4.22;;;15.50;99.90;;;;;;5037367;28;20174;-68
2022/09/30 09:48:44;;;;;;;8.00;4.63;;;15.50;99.90;;;;;;5092928;27;20557;-67
2022/09/30 09:51:30;;;;;;;6.30;4.20;;;15.60;99.90;;;;;;5083389;28;20195;-67
2022/09/30 09:54:00;;;;;;;6.80;4.70;;;15.60;99.90;;;;;;5097716;28;20208;-67
2022/09/30 09:56:29;;;;;;;9.23;5.45;;;15.70;99.90;;;;;;5083462;28;20536;-66
2022/09/30 09:59:08;;;;;;;6.55;4.53;;;15.80;99.90;;;;;;5098569;28;20587;-67
2022/09/30 10:01:36;;;;;;;5.65;4.30;;;15.90;99.90;;;;;;5098138;28;20201;-67
2022/09/30 10:04:17;;;;;;;4.72;4.10;;;16.10;99.90;;;;;;5095592;28;20181;-66
2022/09/30 10:06:50;;;;;;;7.53;3.78;;;16.00;99.90;;;;;;5096160;28;20175;-66
2022/09/30 10:09:36;;;;;;;9.43;4.18;;;16.10;99.90;;;;;;5093868;27;20184;-67
2022/09/30 10:12:04;;;;;;;7.38;4.40;;;16.30;99.90;;;;;;5078273;28;20229;-66
2022/09/30 10:14:55;;;;;;;7.05;4.80;;;16.30;99.90;;;;;;5099031;27;20259;-66
2022/09/30 10:17:30;;;;;;;6.75;5.38;;;16.30;99.90;;;;;;5105754;28;20176;-66
2022/09/30 10:20:17;;;;;;;6.60;5.00;;;16.50;99.90;;;;;;5087228;28;20202;-68
2022/09/30 10:22:43;;;;;;;5.40;4.25;;;16.40;99.90;;;;;;5077283;28;20204;-67
2022/09/30 10:25:14;;;;;;;5.15;4.53;;;16.50;99.90;;;;;;5096702;28;20700;-67
2022/09/30 10:27:59;;;;;;;5.45;3.70;;;16.50;99.90;;;;;;5094634;28;20625;-68
2022/09/30 10:30:44;;;;;;;4.03;3.63;;;16.50;99.90;;;;;;5078089;28;20179;-66
2022/09/30 10:33:27;;;;;;;4.10;3.60;;;16.40;99.90;;;;;;5076980;28;20215;-66
2022/09/30 10:36:04;;;;;;;5.63;3.95;;;16.50;99.90;;;;;;5077894;28;20621;-67
2022/09/30 10:38:31;;;;;;;3.25;2.83;;;16.60;99.90;;;;;;5100380;28;20176;-67
2022/09/30 10:40:57;;;;;;;6.82;3.75;;;16.70;99.90;;;;;;5110116;28;20214;-66
2022/09/30 10:43:29;;;;;;;5.72;4.47;;;16.70;99.90;;;;;;5075120;28;20211;-66
2022/09/30 10:45:58;;;;;;;8.15;3.30;;;16.90;99.90;;;;;;5094775;28;20192;-67
2022/09/30 10:48:27;;;;;;;3.35;3.05;;;16.80;99.90;;;;;;5082643;28;20275;-66
2022/09/30 10:50:55;;;;;;;7.65;3.78;;;16.90;99.90;;;;;;5098743;28;20176;-68
2022/09/30 10:53:28;;;;;;;8.20;4.38;;;17.00;99.90;;;;;;5073825;28;20181;-68
2022/09/30 10:55:55;;;;;;;6.10;4.95;;;17.20;99.90;;;;;;5091563;28;20183;-68
2022/09/30 10:58:27;;;;;;;6.75;4.28;;;17.20;99.90;;;;;;5099428;28;20180;-67
2022/09/30 11:01:06;;;;;;;7.25;4.35;;;17.20;99.90;;;;;;5102425;28;20191;-68
2022/09/30 11:03:41;;;;;;;5.20;4.07;;;17.10;99.90;;;;;;5108816;28;20183;-67
2022/09/30 11:06:10;;;;;;;4.32;3.60;;;17.20;99.90;;;;;;5112545;28;20187;-68
2022/09/30 11:08:48;;;;;;;3.65;3.30;;;17.30;99.90;;;;;;5102837;28;20180;-67
2022/09/30 11:11:33;;;;;;;4.30;3.42;;;17.30;99.90;;;;;;5094852;28;20599;-68
2022/09/30 11:14:10;;;;;;;6.60;3.58;;;17.40;99.90;;;;;;5104108;28;20244;-68
2022/09/30 11:16:58;;;;;;;4.90;4.07;;;17.40;99.90;;;;;;5097953;28;20532;-68
2022/09/30 11:19:32;;;;;;;6.68;3.85;;;17.40;99.90;;;;;;5094056;28;20277;-67
2022/09/30 11:22:19;;;;;;;3.83;3.30;;;17.50;99.90;;;;;;5105509;28;20212;-67
2022/09/30 11:24:49;;;;;;;4.53;2.83;;;17.60;99.90;;;;;;5074785;28;20193;-67
2022/09/30 11:27:25;;;;;;;3.65;2.72;;;17.50;99.90;;;;;;5074968;28;20589;-67
2022/09/30 11:30:09;;;;;;;4.95;3.33;;;17.50;99.90;;;;;;5085130;28;20181;-68
2022/09/30 11:32:57;;;;;;;4.20;2.78;;;17.50;99.90;;;;;;5088066;28;20184;-67
2022/09/30 11:35:42;;;;;;;4.13;2.90;;;17.60;99.90;;;;;;5082384;27;20180;-67
2022/09/30 11:38:37;;;;;;;3.58;2.53;;;17.50;99.90;;;;;;5078420;28;20592;-68
2022/09/30 11:41:16;;;;;;;5.30;3.33;;;17.60;99.90;;;;;;5091735;28;20715;-68
2022/09/30 11:44:04;;;;;;;2.85;2.65;;;17.70;99.90;;;;;;5111773;28;20254;-67
2022/09/30 11:46:44;;;;;;;2.70;2.38;;;17.90;99.90;;;;;;5108605;27;20172;-67
2022/09/30 11:49:25;;;;;;;8.43;3.03;;;17.70;99.90;;;;;;5097632;27;20551;-68
2022/09/30 11:52:02;;;;;;;4.05;3.47;;;17.60;99.90;;;;;;5098341;28;20208;-68
2022/09/30 11:54:49;;;;;;;3.92;2.78;;;17.70;99.90;;;;;;5115693;27;20206;-67
2022/09/30 11:57:21;;;;;;;5.40;3.05;;;17.70;99.90;;;;;;5087202;28;20699;-67
2022/09/30 11:59:56;;;;;;;2.97;2.70;;;17.90;99.90;;;;;;5113893;27;20213;-67
2022/09/30 12:02:38;;;;;;;3.65;3.33;;;17.80;99.90;;;;;;5093278;28;20211;-67
2022/09/30 12:05:10;;;;;;;2.90;2.60;;;18.00;99.90;;;;;;5083426;28;20191;-67
2022/09/30 12:07:48;;;;;;;3.83;3.42;;;18.20;99.90;;;;;;5093897;28;20176;-68
2022/09/30 12:10:30;;;;;;;6.72;4.13;;;18.40;99.90;;;;;;5116168;27;20195;-67
2022/09/30 12:13:02;;;;;;;6.30;3.17;;;18.40;99.90;;;;;;5097231;27;20216;-68
2022/09/30 12:15:30;;;;;;;4.15;3.20;;;18.20;99.90;;;;;;5115732;27;20523;-67
2022/09/30 12:18:11;;;;;;;3.60;2.47;;;18.30;99.90;;;;;;5090680;28;20237;-67
2022/09/30 12:20:48;;;;;;;4.22;3.83;;;18.40;99.90;;;;;;5108806;27;20198;-67
2022/09/30 12:23:26;;;;;;;4.10;3.05;;;18.60;99.90;;;;;;5098183;27;20215;-68
2022/09/30 12:25:57;;;;;;;3.92;3.35;;;18.50;99.90;;;;;;5108931;27;20226;-67
2022/09/30 12:31:22;;;;;;;4.05;3.53;;;18.20;99.90;;;;;;5099908;27;20655;-68
2022/09/30 12:34:47;;;;;;;3.75;3.45;;;18.30;99.90;;;;;;5110599;27;20256;-68
2022/09/30 12:37:46;;;;;;;4.07;3.58;;;18.90;99.90;;;;;;5001462;28;20192;-67
2022/09/30 12:40:23;;;;;;;4.45;2.90;;;18.80;99.90;;;;;;5011931;28;20190;-68
2022/09/30 12:43:21;;;;;;;3.63;3.33;;;18.80;99.90;;;;;;5090289;27;20700;-67
2022/09/30 12:46:19;;;;;;;3.45;3.15;;;18.80;99.90;;;;;;5080969;28;20189;-67
2022/09/30 12:49:00;;;;;;;3.80;2.40;;;18.70;99.90;;;;;;5091081;28;20187;-67
2022/09/30 12:51:33;;;;;;;6.28;2.95;;;18.80;99.90;;;;;;5107338;27;20183;-68
2022/09/30 12:54:06;;;;;;;4.40;4.03;;;19.00;99.90;;;;;;5090385;28;20191;-67
2022/09/30 12:56:33;;;;;;;2.97;2.67;;;19.10;99.90;;;;;;5109851;28;20180;-66
2022/09/30 12:59:00;;;;;;;4.95;2.85;;;19.00;99.90;;;;;;5090216;28;20332;-67
2022/09/30 13:01:29;;;;;;;6.32;4.07;;;18.90;99.90;;;;;;5088559;28;20250;-67
2022/09/30 13:04:00;;;;;;;3.25;2.75;;;19.00;99.90;;;;;;5094674;27;20185;-67
2022/09/30 13:06:46;;;;;;;4.55;3.22;;;18.80;99.90;;;;;;5109125;28;20184;-67
2022/09/30 13:09:15;;;;;;;3.63;3.20;;;18.60;99.90;;;;;;5114311;27;20192;-67
2022/09/30 13:11:45;;;;;;;5.03;2.90;;;18.60;99.90;;;;;;5087433;28;20183;-67
2022/09/30 13:14:33;;;;;;;4.05;3.10;;;18.50;99.90;;;;;;5104218;28;20192;-66
2022/09/30 13:17:23;;;;;;;3.97;3.10;;;18.50;99.90;;;;;;5109831;28;20203;-67